createdAt,value
2017-06-08T00:00:05.555Z,957.86
2017-06-08T00:01:05.548Z,957.85
2017-06-08T00:02:05.554Z,957.82
2017-06-08T00:03:05.529Z,957.82
2017-06-08T00:04:05.521Z,957.81
2017-06-08T00:05:05.527Z,957.81
2017-06-08T00:06:05.504Z,957.83
2017-06-08T00:07:05.499Z,957.84
2017-06-08T00:08:05.490Z,957.86
2017-06-08T00:09:05.483Z,957.83
2017-06-08T00:10:05.474Z,957.82
2017-06-08T00:11:05.467Z,957.85
2017-06-08T00:12:05.458Z,957.88
2017-06-08T00:13:05.449Z,957.9
2017-06-08T00:14:05.454Z,957.91
2017-06-08T00:15:05.434Z,957.92
2017-06-08T00:16:05.434Z,957.83
2017-06-08T00:17:05.418Z,957.87
2017-06-08T00:18:05.409Z,957.81
2017-06-08T00:19:05.402Z,957.81
2017-06-08T00:20:05.394Z,957.82
2017-06-08T00:21:05.537Z,957.82
2017-06-08T00:22:05.378Z,957.86
2017-06-08T00:23:05.369Z,957.87
2017-06-08T00:24:05.362Z,957.84
2017-06-08T00:25:05.352Z,957.84
2017-06-08T00:26:05.365Z,957.87
2017-06-08T00:27:05.337Z,957.82
2017-06-08T00:28:05.330Z,957.83
2017-06-08T00:29:05.321Z,957.86
2017-06-08T00:30:05.313Z,957.9
2017-06-08T00:31:05.306Z,957.86
2017-06-08T00:32:05.298Z,957.85
2017-06-08T00:33:05.288Z,957.83
2017-06-08T00:34:05.281Z,957.83
2017-06-08T00:35:05.272Z,957.84
2017-06-08T00:36:05.264Z,957.85
2017-06-08T00:37:05.255Z,957.88
2017-06-08T00:38:05.259Z,957.95
2017-06-08T00:39:05.240Z,957.95
2017-06-08T00:40:05.231Z,957.94
2017-06-08T00:41:05.222Z,957.93
2017-06-08T00:42:05.213Z,957.86
2017-06-08T00:43:05.206Z,957.91
2017-06-08T00:44:05.195Z,957.91
2017-06-08T00:45:05.212Z,957.96
2017-06-08T00:46:05.179Z,957.97
2017-06-08T00:47:05.209Z,957.97
2017-06-08T00:48:05.163Z,957.95
2017-06-08T00:49:05.155Z,957.96
2017-06-08T00:50:05.146Z,957.94
2017-06-08T00:51:05.139Z,957.94
2017-06-08T00:52:05.130Z,957.93
2017-06-08T00:53:05.120Z,957.94
2017-06-08T00:54:05.114Z,957.95
2017-06-08T00:55:05.103Z,957.97
2017-06-08T00:56:05.096Z,957.99
2017-06-08T00:57:05.087Z,957.98
2017-06-08T00:58:05.080Z,957.93
2017-06-08T00:59:05.070Z,957.94
2017-06-08T01:00:05.061Z,957.94
2017-06-08T01:01:05.052Z,957.92
2017-06-08T01:02:05.045Z,957.92
2017-06-08T01:03:05.044Z,957.91
2017-06-08T01:04:05.029Z,957.98
2017-06-08T01:05:05.021Z,957.95
2017-06-08T01:06:05.019Z,957.93
2017-06-08T01:07:05.000Z,957.95
2017-06-08T01:08:04.991Z,957.97
2017-06-08T01:09:05.009Z,957.95
2017-06-08T01:10:04.973Z,957.95
2017-06-08T01:11:05.116Z,957.97
2017-06-08T01:12:04.956Z,957.95
2017-06-08T01:13:04.948Z,957.98
2017-06-08T01:14:04.939Z,958.02
2017-06-08T01:15:04.931Z,957.98
2017-06-08T01:16:04.923Z,957.97
2017-06-08T01:17:04.911Z,957.98
2017-06-08T01:18:04.903Z,957.95
2017-06-08T01:19:04.896Z,957.94
2017-06-08T01:20:04.886Z,957.86
2017-06-08T01:21:04.877Z,957.93
2017-06-08T01:22:05.018Z,957.91
2017-06-08T01:23:04.859Z,957.95
2017-06-08T01:24:04.851Z,957.97
2017-06-08T01:25:04.842Z,957.96
2017-06-08T01:26:04.833Z,957.93
2017-06-08T01:27:04.825Z,957.91
2017-06-08T01:28:04.815Z,957.97
2017-06-08T01:29:04.807Z,957.96
2017-06-08T01:30:04.798Z,958
2017-06-08T01:31:04.788Z,957.95
2017-06-08T01:32:04.777Z,957.98
2017-06-08T01:33:04.781Z,957.96
2017-06-08T01:34:04.760Z,957.87
2017-06-08T01:35:04.753Z,957.95
2017-06-08T01:36:04.744Z,957.96
2017-06-08T01:37:04.735Z,957.9
2017-06-08T01:38:04.743Z,957.92
2017-06-08T01:39:04.718Z,957.91
2017-06-08T01:40:04.707Z,957.88
2017-06-08T01:41:04.703Z,957.9
2017-06-08T01:42:04.691Z,957.9
2017-06-08T01:43:04.680Z,957.88
2017-06-08T01:44:04.673Z,957.81
2017-06-08T01:45:04.664Z,957.82
2017-06-08T01:46:04.654Z,957.86
2017-06-08T01:47:04.667Z,957.84
2017-06-08T01:48:04.636Z,957.84
2017-06-08T01:49:04.628Z,957.89
2017-06-08T01:50:04.634Z,957.85
2017-06-08T01:51:04.693Z,957.86
2017-06-08T01:52:04.599Z,957.93
2017-06-08T01:53:04.591Z,957.88
2017-06-08T01:54:04.581Z,957.89
2017-06-08T01:55:04.575Z,957.87
2017-06-08T01:56:04.714Z,957.87
2017-06-08T01:57:04.556Z,957.88
2017-06-08T01:58:04.546Z,957.92
2017-06-08T01:59:04.536Z,957.91
2017-06-08T02:00:04.528Z,957.89
2017-06-08T02:01:04.518Z,957.92
2017-06-08T02:02:04.511Z,957.9
2017-06-08T02:03:04.501Z,957.89
2017-06-08T02:04:04.494Z,957.9
2017-06-08T02:05:04.482Z,957.86
2017-06-08T02:06:04.473Z,957.89
2017-06-08T02:07:04.615Z,957.88
2017-06-08T02:08:04.477Z,957.9
2017-06-08T02:09:04.447Z,957.85
2017-06-08T02:10:04.438Z,957.88
2017-06-08T02:11:04.427Z,957.88
2017-06-08T02:12:04.418Z,957.89
2017-06-08T02:13:04.410Z,957.91
2017-06-08T02:14:04.400Z,957.93
2017-06-08T02:15:04.393Z,957.92
2017-06-08T02:16:04.383Z,957.95
2017-06-08T02:17:04.523Z,957.88
2017-06-08T02:18:04.365Z,957.87
2017-06-08T02:19:04.369Z,957.9
2017-06-08T02:20:04.349Z,957.9
2017-06-08T02:21:04.336Z,957.83
2017-06-08T02:22:04.328Z,957.85
2017-06-08T02:23:04.319Z,957.86
2017-06-08T02:24:04.310Z,957.89
2017-06-08T02:25:04.311Z,957.87
2017-06-08T02:26:04.292Z,957.93
2017-06-08T02:27:04.285Z,957.86
2017-06-08T02:28:04.274Z,957.78
2017-06-08T02:29:04.266Z,957.74
2017-06-08T02:30:04.257Z,957.81
2017-06-08T02:31:04.246Z,957.8
2017-06-08T02:32:04.249Z,957.84
2017-06-08T02:33:04.228Z,957.93
2017-06-08T02:34:04.219Z,957.9
2017-06-08T02:35:04.212Z,957.89
2017-06-08T02:36:04.202Z,957.86
2017-06-08T02:37:04.192Z,957.87
2017-06-08T02:38:04.187Z,957.93
2017-06-08T02:39:04.174Z,957.96
2017-06-08T02:40:04.166Z,957.99
2017-06-08T02:41:04.156Z,957.94
2017-06-08T02:42:04.147Z,958
2017-06-08T02:43:04.138Z,957.97
2017-06-08T02:44:04.153Z,958
2017-06-08T02:45:04.119Z,957.99
2017-06-08T02:46:04.112Z,958.07
2017-06-08T02:47:04.104Z,958.04
2017-06-08T02:48:04.095Z,958.05
2017-06-08T02:49:04.084Z,957.99
2017-06-08T02:50:04.076Z,958.02
2017-06-08T02:51:04.066Z,957.99
2017-06-08T02:52:04.056Z,957.97
2017-06-08T02:53:04.048Z,958
2017-06-08T02:54:04.039Z,958.04
2017-06-08T02:55:04.070Z,958.01
2017-06-08T02:56:04.021Z,957.98
2017-06-08T02:57:04.013Z,957.93
2017-06-08T02:58:04.004Z,957.95
2017-06-08T02:59:03.994Z,957.95
2017-06-08T03:00:03.985Z,957.95
2017-06-08T03:01:03.976Z,957.89
2017-06-08T03:02:03.983Z,957.98
2017-06-08T03:03:03.956Z,957.98
2017-06-08T03:04:03.948Z,957.92
2017-06-08T03:05:03.940Z,957.93
2017-06-08T03:06:03.931Z,957.94
2017-06-08T03:07:03.921Z,957.98
2017-06-08T03:08:03.913Z,957.94
2017-06-08T03:09:03.905Z,957.96
2017-06-08T03:10:03.895Z,957.93
2017-06-08T03:11:03.904Z,957.89
2017-06-08T03:12:03.877Z,957.98
2017-06-08T03:13:03.868Z,957.97
2017-06-08T03:14:03.860Z,958.06
2017-06-08T03:15:03.852Z,958.02
2017-06-08T03:16:03.842Z,957.96
2017-06-08T03:17:03.832Z,957.97
2017-06-08T03:18:03.823Z,958.01
2017-06-08T03:19:03.813Z,957.96
2017-06-08T03:20:03.957Z,958.02
2017-06-08T03:21:03.796Z,957.97
2017-06-08T03:22:03.787Z,958.02
2017-06-08T03:23:03.779Z,958.07
2017-06-08T03:24:03.770Z,958.06
2017-06-08T03:25:03.760Z,958.06
2017-06-08T03:26:03.750Z,958
2017-06-08T03:27:03.745Z,958.04
2017-06-08T03:28:03.734Z,958.1
2017-06-08T03:29:03.745Z,958.04
2017-06-08T03:30:03.716Z,958.07
2017-06-08T03:31:03.706Z,958.07
2017-06-08T03:32:03.695Z,958.09
2017-06-08T03:33:03.686Z,958.1
2017-06-08T03:34:03.680Z,958.07
2017-06-08T03:35:03.671Z,958.12
2017-06-08T03:36:03.681Z,958.09
2017-06-08T03:37:03.651Z,958.11
2017-06-08T03:38:03.643Z,958.08
2017-06-08T03:39:03.634Z,958.14
2017-06-08T03:40:03.624Z,958.1
2017-06-08T03:41:03.616Z,958.07
2017-06-08T03:42:03.608Z,958.12
2017-06-08T03:43:03.596Z,958.16
2017-06-08T03:44:03.589Z,958.22
2017-06-08T03:45:03.580Z,958.18
2017-06-08T03:46:03.571Z,958.24
2017-06-08T03:47:03.559Z,958.21
2017-06-08T03:48:03.554Z,958.23
2017-06-08T03:49:03.542Z,958.23
2017-06-08T03:50:03.537Z,958.22
2017-06-08T03:51:03.524Z,958.19
2017-06-08T03:52:03.515Z,958.26
2017-06-08T03:53:03.506Z,958.27
2017-06-08T03:54:03.498Z,958.22
2017-06-08T03:55:03.497Z,958.23
2017-06-08T03:56:03.481Z,958.29
2017-06-08T03:57:03.471Z,958.24
2017-06-08T03:58:03.462Z,958.25
2017-06-08T03:59:03.453Z,958.22
2017-06-08T04:00:03.443Z,958.16
2017-06-08T04:01:03.435Z,958.18
2017-06-08T04:02:03.429Z,958.16
2017-06-08T04:03:03.434Z,958.18
2017-06-08T04:04:03.407Z,958.18
2017-06-08T04:05:03.399Z,958.18
2017-06-08T04:06:03.390Z,958.17
2017-06-08T04:07:03.380Z,958.14
2017-06-08T04:08:03.380Z,958.21
2017-06-08T04:09:03.363Z,958.26
2017-06-08T04:10:03.354Z,958.29
2017-06-08T04:11:03.345Z,958.24
2017-06-08T04:12:03.335Z,958.21
2017-06-08T04:13:03.327Z,958.26
2017-06-08T04:14:03.331Z,958.26
2017-06-08T04:15:03.310Z,958.21
2017-06-08T04:16:03.300Z,958.23
2017-06-08T04:17:03.291Z,958.23
2017-06-08T04:18:03.283Z,958.23
2017-06-08T04:19:03.274Z,958.24
2017-06-08T04:20:03.265Z,958.22
2017-06-08T04:21:03.255Z,958.25
2017-06-08T04:22:03.248Z,958.23
2017-06-08T04:23:03.239Z,958.27
2017-06-08T04:24:03.252Z,958.3
2017-06-08T04:25:03.223Z,958.25
2017-06-08T04:26:03.214Z,958.25
2017-06-08T04:27:03.354Z,958.25
2017-06-08T04:28:03.220Z,958.23
2017-06-08T04:29:03.187Z,958.17
2017-06-08T04:30:03.180Z,958.18
2017-06-08T04:31:03.171Z,958.17
2017-06-08T04:32:03.162Z,958.22
2017-06-08T04:33:03.154Z,958.14
2017-06-08T04:34:03.146Z,958.14
2017-06-08T04:35:03.156Z,958.15
2017-06-08T04:36:03.128Z,958.12
2017-06-08T04:37:03.128Z,958.18
2017-06-08T04:38:03.112Z,958.2
2017-06-08T04:39:03.104Z,958.17
2017-06-08T04:40:03.096Z,958.16
2017-06-08T04:41:03.088Z,958.14
2017-06-08T04:42:03.079Z,958.14
2017-06-08T04:43:03.072Z,958.21
2017-06-08T04:44:03.065Z,958.21
2017-06-08T04:45:03.057Z,958.18
2017-06-08T04:46:03.050Z,958.19
2017-06-08T04:47:03.042Z,958.2
2017-06-08T04:48:03.041Z,958.21
2017-06-08T04:49:03.026Z,958.26
2017-06-08T04:50:03.053Z,958.27
2017-06-08T04:51:03.012Z,958.3
2017-06-08T04:52:03.005Z,958.26
2017-06-08T04:53:02.997Z,958.26
2017-06-08T04:54:02.990Z,958.26
2017-06-08T04:55:02.981Z,958.21
2017-06-08T04:56:02.975Z,958.28
2017-06-08T04:57:02.966Z,958.21
2017-06-08T04:58:02.982Z,958.32
2017-06-08T04:59:02.954Z,958.26
2017-06-08T05:00:02.951Z,958.3
2017-06-08T05:01:02.961Z,958.27
2017-06-08T05:02:02.933Z,958.27
2017-06-08T05:03:02.927Z,958.28
2017-06-08T05:04:02.919Z,958.27
2017-06-08T05:05:02.913Z,958.27
2017-06-08T05:06:02.907Z,958.31
2017-06-08T05:07:02.898Z,958.25
2017-06-08T05:08:02.892Z,958.25
2017-06-08T05:09:02.886Z,958.23
2017-06-08T05:10:02.880Z,958.18
2017-06-08T05:11:02.890Z,958.24
2017-06-08T05:12:02.865Z,958.22
2017-06-08T05:13:02.860Z,958.25
2017-06-08T05:14:02.855Z,958.25
2017-06-08T05:15:02.848Z,958.25
2017-06-08T05:16:02.843Z,958.24
2017-06-08T05:17:02.859Z,958.25
2017-06-08T05:18:02.829Z,958.23
2017-06-08T05:19:02.823Z,958.29
2017-06-08T05:20:02.817Z,958.31
2017-06-08T05:21:02.815Z,958.24
2017-06-08T05:22:02.805Z,958.26
2017-06-08T05:23:02.799Z,958.27
2017-06-08T05:24:02.793Z,958.29
2017-06-08T05:25:02.794Z,958.29
2017-06-08T05:26:02.802Z,958.3
2017-06-08T05:27:02.776Z,958.28
2017-06-08T05:28:02.770Z,958.3
2017-06-08T05:29:02.764Z,958.24
2017-06-08T05:30:02.757Z,958.3
2017-06-08T05:31:02.753Z,958.22
2017-06-08T05:32:02.747Z,958.25
2017-06-08T05:33:02.747Z,958.3
2017-06-08T05:34:02.734Z,958.29
2017-06-08T05:35:02.729Z,958.27
2017-06-08T05:36:02.725Z,958.23
2017-06-08T05:37:02.718Z,958.21
2017-06-08T05:38:02.712Z,958.23
2017-06-08T05:39:02.707Z,958.25
2017-06-08T05:40:02.700Z,958.19
2017-06-08T05:41:02.697Z,958.21
2017-06-08T05:42:02.691Z,958.25
2017-06-08T05:43:02.686Z,958.28
2017-06-08T05:44:02.680Z,958.29
2017-06-08T05:45:02.673Z,958.21
2017-06-08T05:46:02.670Z,958.24
2017-06-08T05:47:02.665Z,958.27
2017-06-08T05:48:02.660Z,958.23
2017-06-08T05:49:02.654Z,958.26
2017-06-08T05:50:02.649Z,958.28
2017-06-08T05:51:02.644Z,958.27
2017-06-08T05:52:02.661Z,958.19
2017-06-08T05:53:02.634Z,958.2
2017-06-08T05:54:02.629Z,958.23
2017-06-08T05:55:02.773Z,958.25
2017-06-08T05:56:02.618Z,958.28
2017-06-08T05:57:02.614Z,958.31
2017-06-08T05:58:02.610Z,958.23
2017-06-08T05:59:02.605Z,958.32
2017-06-08T06:00:02.600Z,958.29
2017-06-08T06:01:02.597Z,958.26
2017-06-08T06:02:02.609Z,958.26
2017-06-08T06:03:02.587Z,958.31
2017-06-08T06:04:02.584Z,958.27
2017-06-08T06:05:02.580Z,958.3
2017-06-08T06:06:02.724Z,958.28
2017-06-08T06:07:02.569Z,958.26
2017-06-08T06:08:02.582Z,958.27
2017-06-08T06:09:02.561Z,958.3
2017-06-08T06:10:02.558Z,958.32
2017-06-08T06:11:02.553Z,958.33
2017-06-08T06:12:02.550Z,958.3
2017-06-08T06:13:02.546Z,958.33
2017-06-08T06:14:02.543Z,958.32
2017-06-08T06:15:02.537Z,958.33
2017-06-08T06:16:02.535Z,958.35
2017-06-08T06:17:02.531Z,958.3
2017-06-08T06:18:02.527Z,958.29
2017-06-08T06:19:02.522Z,958.35
2017-06-08T06:20:02.523Z,958.33
2017-06-08T06:21:02.518Z,958.38
2017-06-08T06:22:02.514Z,958.29
2017-06-08T06:23:02.531Z,958.33
2017-06-08T06:24:02.506Z,958.37
2017-06-08T06:25:02.503Z,958.32
2017-06-08T06:26:02.500Z,958.41
2017-06-08T06:27:02.496Z,958.37
2017-06-08T06:28:02.643Z,958.34
2017-06-08T06:29:02.519Z,958.36
2017-06-08T06:30:02.487Z,958.39
2017-06-08T06:31:02.483Z,958.45
2017-06-08T06:32:02.479Z,958.43
2017-06-08T06:33:02.477Z,958.38
2017-06-08T06:34:02.475Z,958.42
2017-06-08T06:35:02.470Z,958.44
2017-06-08T06:36:02.467Z,958.48
2017-06-08T06:37:02.463Z,958.38
2017-06-08T06:38:02.473Z,958.44
2017-06-08T06:39:02.457Z,958.46
2017-06-08T06:40:02.454Z,958.49
2017-06-08T06:41:02.452Z,958.57
2017-06-08T06:42:02.449Z,958.51
2017-06-08T06:43:02.450Z,958.56
2017-06-08T06:44:02.444Z,958.51
2017-06-08T06:45:02.440Z,958.51
2017-06-08T06:46:02.437Z,958.42
2017-06-08T06:47:02.437Z,958.47
2017-06-08T06:48:02.437Z,958.47
2017-06-08T06:49:02.436Z,958.51
2017-06-08T06:50:02.434Z,958.51
2017-06-08T06:51:02.434Z,958.46
2017-06-08T06:52:02.433Z,958.53
2017-06-08T06:53:02.431Z,958.51
2017-06-08T06:54:02.433Z,958.45
2017-06-08T06:55:02.433Z,958.54
2017-06-08T06:56:02.434Z,958.48
2017-06-08T06:57:02.439Z,958.49
2017-06-08T06:58:02.435Z,958.5
2017-06-08T06:59:02.435Z,958.52
2017-06-08T07:00:02.457Z,958.46
2017-06-08T07:01:02.438Z,958.52
2017-06-08T07:02:02.440Z,958.52
2017-06-08T07:03:02.442Z,958.55
2017-06-08T07:04:02.443Z,958.51
2017-06-08T07:05:02.446Z,958.49
2017-06-08T07:06:02.448Z,958.49
2017-06-08T07:07:02.450Z,958.5
2017-06-08T07:08:02.467Z,958.48
2017-06-08T07:09:02.454Z,958.47
2017-06-08T07:10:02.456Z,958.43
2017-06-08T07:11:02.460Z,958.46
2017-06-08T07:12:02.461Z,958.44
2017-06-08T07:13:02.463Z,958.48
2017-06-08T07:14:02.465Z,958.44
2017-06-08T07:15:02.467Z,958.42
2017-06-08T07:16:02.485Z,958.47
2017-06-08T07:17:02.475Z,958.48
2017-06-08T07:18:02.544Z,958.48
2017-06-08T07:19:02.481Z,958.52
2017-06-08T07:20:02.488Z,958.55
2017-06-08T07:21:02.490Z,958.59
2017-06-08T07:22:02.513Z,958.4
2017-06-08T07:23:02.698Z,958.42
2017-06-08T07:24:02.500Z,958.36
2017-06-08T07:25:02.507Z,958.41
2017-06-08T07:26:02.511Z,958.41
2017-06-08T07:27:02.512Z,958.38
2017-06-08T07:28:02.515Z,958.42
2017-06-08T07:29:02.519Z,958.47
2017-06-08T07:30:02.523Z,958.5
2017-06-08T07:31:02.542Z,958.56
2017-06-08T07:32:02.529Z,958.55
2017-06-08T07:33:02.533Z,958.55
2017-06-08T07:34:02.536Z,958.43
2017-06-08T07:35:02.544Z,958.44
2017-06-08T07:36:02.544Z,958.37
2017-06-08T07:37:02.548Z,958.37
2017-06-08T07:38:02.552Z,958.37
2017-06-08T07:39:02.555Z,958.32
2017-06-08T07:40:02.559Z,958.32
2017-06-08T07:41:02.562Z,958.35
2017-06-08T07:42:02.567Z,958.35
2017-06-08T07:43:02.570Z,958.31
2017-06-08T07:44:02.574Z,958.35
2017-06-08T07:45:02.586Z,958.32
2017-06-08T07:46:02.585Z,958.36
2017-06-08T07:47:02.588Z,958.38
2017-06-08T07:48:02.591Z,958.36
2017-06-08T07:49:02.596Z,958.44
2017-06-08T07:50:02.600Z,958.39
2017-06-08T07:51:02.607Z,958.38
2017-06-08T07:52:02.610Z,958.39
2017-06-08T07:53:02.614Z,958.34
2017-06-08T07:54:02.619Z,958.36
2017-06-08T07:55:02.624Z,958.38
2017-06-08T07:56:02.628Z,958.4
2017-06-08T07:57:02.645Z,958.39
2017-06-08T07:58:02.637Z,958.43
2017-06-08T07:59:02.640Z,958.36
2017-06-08T08:00:02.647Z,958.38
2017-06-08T08:01:02.650Z,958.39
2017-06-08T08:02:02.655Z,958.37
2017-06-08T08:03:02.657Z,958.43
2017-06-08T08:04:02.662Z,958.38
2017-06-08T08:05:02.665Z,958.41
2017-06-08T08:06:02.668Z,958.41
2017-06-08T08:07:02.693Z,958.41
2017-06-08T08:08:02.677Z,958.31
2017-06-08T08:09:02.678Z,958.32
2017-06-08T08:10:02.682Z,958.35
2017-06-08T08:11:02.686Z,958.42
2017-06-08T08:12:02.688Z,958.34
2017-06-08T08:13:02.695Z,958.4
2017-06-08T08:14:02.693Z,958.41
2017-06-08T08:15:02.695Z,958.45
2017-06-08T08:16:02.699Z,958.41
2017-06-08T08:17:02.710Z,958.41
2017-06-08T08:18:02.724Z,958.39
2017-06-08T08:19:02.703Z,958.36
2017-06-08T08:20:02.706Z,958.45
2017-06-08T08:21:02.707Z,958.41
2017-06-08T08:22:02.708Z,958.4
2017-06-08T08:23:02.709Z,958.36
2017-06-08T08:24:02.714Z,958.39
2017-06-08T08:25:02.711Z,958.41
2017-06-08T08:26:02.713Z,958.34
2017-06-08T08:27:02.713Z,958.37
2017-06-08T08:28:02.714Z,958.31
2017-06-08T08:29:02.715Z,958.36
2017-06-08T08:30:02.716Z,958.35
2017-06-08T08:31:02.716Z,958.32
2017-06-08T08:32:02.716Z,958.35
2017-06-08T08:33:02.720Z,958.32
2017-06-08T08:34:02.717Z,958.3
2017-06-08T08:35:02.718Z,958.29
2017-06-08T08:36:02.717Z,958.28
2017-06-08T08:37:02.738Z,958.27
2017-06-08T08:38:02.720Z,958.25
2017-06-08T08:39:02.717Z,958.21
2017-06-08T08:40:02.718Z,958.3
2017-06-08T08:41:02.718Z,958.23
2017-06-08T08:42:02.718Z,958.24
2017-06-08T08:43:02.717Z,958.3
2017-06-08T08:44:02.717Z,958.29
2017-06-08T08:45:02.718Z,958.28
2017-06-08T08:46:02.718Z,958.28
2017-06-08T08:47:02.717Z,958.31
2017-06-08T08:48:02.716Z,958.27
2017-06-08T08:49:02.717Z,958.21
2017-06-08T08:50:02.717Z,958.24
2017-06-08T08:51:02.720Z,958.21
2017-06-08T08:52:02.715Z,958.15
2017-06-08T08:53:02.732Z,958.29
2017-06-08T08:54:02.713Z,958.26
2017-06-08T08:55:02.714Z,958.24
2017-06-08T08:56:02.720Z,958.31
2017-06-08T08:57:02.714Z,958.17
2017-06-08T08:58:02.711Z,958.19
2017-06-08T08:59:02.713Z,958.18
2017-06-08T09:00:02.712Z,958.19
2017-06-08T09:01:02.710Z,958.19
2017-06-08T09:02:02.709Z,958.2
2017-06-08T09:03:02.710Z,958.19
2017-06-08T09:04:02.709Z,958.1
2017-06-08T09:05:02.708Z,958.09
2017-06-08T09:06:02.724Z,958.09
2017-06-08T09:07:02.708Z,958
2017-06-08T09:08:02.707Z,958.05
2017-06-08T09:09:02.705Z,958.05
2017-06-08T09:10:02.725Z,958.07
2017-06-08T09:11:02.703Z,958.09
2017-06-08T09:12:02.702Z,958.02
2017-06-08T09:13:02.853Z,958.07
2017-06-08T09:14:02.703Z,958.03
2017-06-08T09:15:02.701Z,958.06
2017-06-08T09:16:02.700Z,958.02
2017-06-08T09:17:02.699Z,958.06
2017-06-08T09:18:02.699Z,958.11
2017-06-08T09:19:02.700Z,958.07
2017-06-08T09:20:02.697Z,958.1
2017-06-08T09:21:02.698Z,958.08
2017-06-08T09:22:02.719Z,958.05
2017-06-08T09:23:02.700Z,958.07
2017-06-08T09:24:02.883Z,958.03
2017-06-08T09:25:02.710Z,958.07
2017-06-08T09:26:02.696Z,958.14
2017-06-08T09:27:02.728Z,958.07
2017-06-08T09:28:02.694Z,958.02
2017-06-08T09:29:02.695Z,957.96
2017-06-08T09:30:02.694Z,958.03
2017-06-08T09:31:02.695Z,957.94
2017-06-08T09:32:02.695Z,958.07
2017-06-08T09:33:02.693Z,958.08
2017-06-08T09:34:02.707Z,958.12
2017-06-08T09:35:02.843Z,958.03
2017-06-08T09:36:02.692Z,958.05
2017-06-08T09:37:02.692Z,958.03
2017-06-08T09:38:02.691Z,958.05
2017-06-08T09:39:02.703Z,958.01
2017-06-08T09:40:02.711Z,958.02
2017-06-08T09:41:02.691Z,958.04
2017-06-08T09:42:02.695Z,958.07
2017-06-08T09:43:02.691Z,958.04
2017-06-08T09:44:02.691Z,958.02
2017-06-08T09:45:02.690Z,957.97
2017-06-08T09:46:02.840Z,958.03
2017-06-08T09:47:02.690Z,958.01
2017-06-08T09:48:02.691Z,958
2017-06-08T09:49:02.690Z,957.94
2017-06-08T09:50:02.689Z,957.99
2017-06-08T09:51:02.690Z,957.96
2017-06-08T09:52:02.689Z,957.97
2017-06-08T09:53:02.690Z,957.98
2017-06-08T09:54:02.689Z,957.97
2017-06-08T09:55:02.689Z,957.96
2017-06-08T09:56:02.689Z,957.96
2017-06-08T09:57:02.840Z,957.94
2017-06-08T09:58:02.707Z,957.95
2017-06-08T09:59:02.689Z,957.95
2017-06-08T10:00:02.688Z,957.98
2017-06-08T10:01:02.693Z,957.97
2017-06-08T10:02:02.689Z,958.01
2017-06-08T10:03:02.688Z,957.99
2017-06-08T10:04:02.689Z,957.94
2017-06-08T10:05:02.690Z,957.96
2017-06-08T10:06:02.689Z,957.94
2017-06-08T10:07:02.691Z,957.97
2017-06-08T10:08:02.839Z,957.92
2017-06-08T10:09:02.690Z,957.89
2017-06-08T10:10:02.691Z,957.89
2017-06-08T10:11:02.691Z,957.85
2017-06-08T10:12:02.692Z,957.85
2017-06-08T10:13:02.691Z,957.93
2017-06-08T10:14:02.692Z,957.9
2017-06-08T10:15:02.691Z,957.88
2017-06-08T10:16:02.692Z,957.87
2017-06-08T10:17:02.692Z,957.84
2017-06-08T10:18:02.693Z,957.82
2017-06-08T10:19:02.842Z,957.86
2017-06-08T10:20:02.694Z,957.87
2017-06-08T10:21:02.694Z,957.82
2017-06-08T10:22:02.694Z,957.84
2017-06-08T10:23:02.694Z,957.8
2017-06-08T10:24:02.695Z,957.83
2017-06-08T10:25:02.695Z,957.83
2017-06-08T10:26:02.694Z,957.81
2017-06-08T10:27:02.696Z,957.75
2017-06-08T10:28:02.695Z,957.78
2017-06-08T10:29:02.696Z,957.77
2017-06-08T10:30:02.846Z,957.78
2017-06-08T10:31:02.697Z,957.79
2017-06-08T10:32:02.699Z,957.77
2017-06-08T10:33:02.696Z,957.77
2017-06-08T10:34:02.697Z,957.77
2017-06-08T10:35:02.699Z,957.77
2017-06-08T10:36:02.697Z,957.76
2017-06-08T10:37:02.699Z,957.76
2017-06-08T10:38:02.699Z,957.77
2017-06-08T10:39:02.699Z,957.76
2017-06-08T10:40:02.699Z,957.82
2017-06-08T10:41:02.850Z,957.81
2017-06-08T10:42:02.715Z,957.83
2017-06-08T10:43:02.716Z,957.78
2017-06-08T10:44:05.731Z,957.79
2017-06-08T10:45:02.698Z,957.84
2017-06-08T10:46:02.699Z,957.83
2017-06-08T10:47:02.702Z,957.78
2017-06-08T10:48:02.701Z,957.8
2017-06-08T10:49:02.700Z,957.78
2017-06-08T10:50:02.700Z,957.72
2017-06-08T10:51:02.699Z,957.68
2017-06-08T10:52:02.849Z,957.74
2017-06-08T10:53:02.701Z,957.59
2017-06-08T10:54:02.702Z,957.59
2017-06-08T10:55:02.702Z,957.62
2017-06-08T10:56:02.702Z,957.57
2017-06-08T10:57:02.701Z,957.67
2017-06-08T10:58:02.721Z,957.62
2017-06-08T10:59:02.703Z,957.6
2017-06-08T11:00:02.702Z,957.53
2017-06-08T11:01:02.704Z,957.63
2017-06-08T11:02:02.702Z,957.63
2017-06-08T11:03:02.852Z,957.61
2017-06-08T11:04:02.701Z,957.64
2017-06-08T11:05:02.702Z,957.62
2017-06-08T11:06:02.721Z,957.54
2017-06-08T11:07:02.704Z,957.62
2017-06-08T11:08:02.724Z,957.59
2017-06-08T11:09:02.727Z,957.57
2017-06-08T11:10:02.703Z,957.59
2017-06-08T11:11:02.703Z,957.57
2017-06-08T11:12:02.703Z,957.53
2017-06-08T11:13:02.703Z,957.58
2017-06-08T11:14:02.853Z,957.55
2017-06-08T11:15:02.705Z,957.49
2017-06-08T11:16:02.702Z,957.53
2017-06-08T11:17:02.702Z,957.51
2017-06-08T11:18:02.702Z,957.5
2017-06-08T11:19:02.704Z,957.54
2017-06-08T11:20:02.703Z,957.51
2017-06-08T11:21:02.702Z,957.52
2017-06-08T11:22:02.712Z,957.47
2017-06-08T11:23:02.701Z,957.52
2017-06-08T11:24:02.710Z,957.47
2017-06-08T11:25:02.850Z,957.57
2017-06-08T11:26:02.698Z,957.59
2017-06-08T11:27:02.702Z,957.58
2017-06-08T11:28:02.699Z,957.53
2017-06-08T11:29:02.700Z,957.64
2017-06-08T11:30:02.699Z,957.58
2017-06-08T11:31:02.698Z,957.48
2017-06-08T11:32:02.699Z,957.57
2017-06-08T11:33:02.697Z,957.55
2017-06-08T11:34:02.697Z,957.55
2017-06-08T11:35:02.698Z,957.47
2017-06-08T11:36:02.848Z,957.42
2017-06-08T11:37:02.697Z,957.43
2017-06-08T11:38:02.697Z,957.39
2017-06-08T11:39:02.695Z,957.38
2017-06-08T11:40:02.697Z,957.4
2017-06-08T11:41:02.698Z,957.36
2017-06-08T11:42:02.697Z,957.34
2017-06-08T11:43:02.696Z,957.39
2017-06-08T11:44:02.697Z,957.35
2017-06-08T11:45:02.697Z,957.34
2017-06-08T11:46:02.697Z,957.32
2017-06-08T11:47:02.699Z,957.29
2017-06-08T11:48:02.698Z,957.32
2017-06-08T11:49:02.699Z,957.31
2017-06-08T11:50:02.704Z,957.22
2017-06-08T11:51:02.701Z,957.18
2017-06-08T11:52:02.701Z,957.23
2017-06-08T11:53:02.706Z,957.26
2017-06-08T11:54:02.708Z,957.3
2017-06-08T11:55:02.703Z,957.29
2017-06-08T11:56:02.737Z,957.3
2017-06-08T11:57:02.706Z,957.22
2017-06-08T11:58:02.856Z,957.23
2017-06-08T11:59:02.707Z,957.19
2017-06-08T12:00:02.728Z,957.15
2017-06-08T12:01:02.710Z,957.14
2017-06-08T12:02:02.710Z,957.23
2017-06-08T12:03:02.710Z,957.16
2017-06-08T12:04:02.713Z,957.2
2017-06-08T12:05:02.711Z,957.19
2017-06-08T12:06:02.717Z,957.22
2017-06-08T12:07:02.719Z,957.25
2017-06-08T12:08:02.715Z,957.26
2017-06-08T12:09:02.866Z,957.18
2017-06-08T12:10:02.717Z,957.15
2017-06-08T12:11:02.717Z,957.05
2017-06-08T12:12:02.746Z,957.08
2017-06-08T12:13:02.719Z,957.02
2017-06-08T12:14:02.722Z,957.13
2017-06-08T12:15:02.744Z,957.11
2017-06-08T12:16:02.721Z,957.08
2017-06-08T12:17:02.726Z,957.08
2017-06-08T12:18:02.744Z,957.09
2017-06-08T12:19:02.723Z,957.14
2017-06-08T12:20:02.889Z,957.14
2017-06-08T12:21:02.725Z,957.2
2017-06-08T12:22:02.724Z,957.17
2017-06-08T12:23:02.725Z,957.11
2017-06-08T12:24:02.726Z,957.17
2017-06-08T12:25:02.727Z,957.17
2017-06-08T12:26:02.728Z,957.19
2017-06-08T12:27:02.727Z,957.19
2017-06-08T12:28:02.728Z,957.21
2017-06-08T12:29:02.727Z,957.16
2017-06-08T12:30:02.730Z,957.15